createdAt,value
2024-02-18T00:03:01.943Z,7.60
2024-02-18T00:08:04.389Z,7.60
2024-02-18T00:13:09.295Z,7.60
2024-02-18T00:18:11.655Z,7.60
2024-02-18T00:23:13.948Z,7.60
2024-02-18T00:28:16.113Z,7.70
2024-02-18T00:33:19.774Z,7.70
2024-02-18T00:38:22.022Z,7.70
2024-02-18T00:43:24.214Z,7.70
2024-02-18T00:48:26.320Z,7.70
2024-02-18T00:53:28.471Z,7.70
2024-02-18T00:58:30.533Z,7.70
2024-02-18T01:03:33.688Z,7.70
2024-02-18T01:08:35.762Z,7.60
2024-02-18T01:13:37.836Z,7.70
2024-02-18T01:18:41.826Z,7.70
2024-02-18T01:23:44.551Z,7.80
2024-02-18T01:28:46.601Z,7.70
2024-02-18T01:33:48.743Z,7.80
2024-02-18T01:38:50.874Z,7.90
2024-02-18T01:43:52.989Z,7.90
2024-02-18T01:48:56.219Z,7.90
2024-02-18T01:53:58.526Z,7.90
2024-02-18T01:59:00.881Z,8.00
2024-02-18T02:04:03.734Z,8.00
2024-02-18T02:09:06.292Z,8.10
2024-02-18T02:14:08.359Z,8.20
2024-02-18T02:19:10.486Z,8.20
2024-02-18T02:24:12.722Z,8.30
2024-02-18T02:29:17.077Z,8.30
2024-02-18T02:34:19.508Z,8.40
2024-02-18T02:39:21.781Z,8.40
2024-02-18T02:44:23.870Z,8.40
2024-02-18T02:49:26.029Z,8.50
2024-02-18T02:54:28.189Z,8.50
2024-02-18T02:59:30.248Z,8.70
2024-02-18T03:04:32.643Z,8.80
2024-02-18T03:09:34.828Z,8.80
2024-02-18T03:14:37.001Z,8.90
2024-02-18T03:19:39.099Z,8.90
2024-02-18T03:24:41.305Z,8.90
2024-02-18T03:29:43.664Z,9.00
2024-02-18T03:34:45.963Z,9.00
2024-02-18T03:39:48.249Z,9.10
2024-02-18T03:44:50.504Z,9.20
2024-02-18T03:49:52.668Z,9.20
2024-02-18T03:54:54.768Z,9.30
2024-02-18T03:59:56.844Z,9.40
2024-02-18T04:04:58.998Z,9.50
2024-02-18T04:10:02.023Z,9.60
2024-02-18T04:15:04.599Z,9.60
2024-02-18T04:20:10.471Z,9.70
2024-02-18T04:25:13.142Z,9.70
2024-02-18T04:30:15.313Z,9.70
2024-02-18T04:35:17.332Z,9.80
2024-02-18T04:40:19.403Z,9.80
2024-02-18T04:45:21.477Z,9.80
2024-02-18T04:50:23.547Z,9.80
2024-02-18T04:55:25.586Z,9.90
2024-02-18T05:00:27.707Z,9.90
2024-02-18T05:05:29.847Z,9.90
2024-02-18T05:10:31.996Z,10.00
2024-02-18T05:15:34.159Z,10.00
2024-02-18T05:20:36.214Z,10.00
2024-02-18T05:25:39.757Z,10.00
2024-02-18T05:30:41.821Z,10.00
2024-02-18T05:35:44.065Z,10.10
2024-02-18T05:40:46.390Z,10.10
2024-02-18T05:45:48.471Z,10.10
2024-02-18T05:50:50.543Z,10.10
2024-02-18T05:55:52.664Z,10.10
2024-02-18T06:00:54.942Z,10.10
2024-02-18T06:05:57.829Z,10.10
2024-02-18T06:11:00.019Z,10.10
2024-02-18T06:16:03.384Z,10.10
2024-02-18T06:21:05.898Z,10.10
2024-02-18T06:26:07.939Z,10.10
2024-02-18T06:31:10.193Z,10.10
2024-02-18T06:36:12.412Z,10.10
2024-02-18T06:41:15.254Z,10.10
2024-02-18T06:46:17.693Z,10.10
2024-02-18T06:51:20.064Z,10.00
2024-02-18T06:56:22.121Z,10.00
2024-02-18T07:01:24.315Z,10.00
2024-02-18T07:06:29.404Z,9.90
2024-02-18T07:11:31.873Z,9.90
2024-02-18T07:16:34.033Z,9.80
2024-02-18T07:21:36.115Z,9.80
2024-02-18T07:26:38.813Z,9.80
2024-02-18T07:31:40.958Z,9.80
2024-02-18T07:36:45.113Z,9.80
2024-02-18T07:41:47.583Z,9.80
2024-02-18T07:46:49.722Z,9.80
2024-02-18T07:51:51.854Z,9.80
2024-02-18T07:56:53.965Z,9.80
2024-02-18T08:01:56.062Z,9.70
2024-02-18T08:06:58.302Z,9.70
2024-02-18T08:12:00.867Z,9.70
2024-02-18T08:17:02.965Z,9.70
2024-02-18T08:22:05.334Z,9.70
2024-02-18T08:27:07.555Z,9.70
2024-02-18T08:32:09.670Z,9.70
2024-02-18T08:37:11.903Z,9.70
2024-02-18T08:42:13.996Z,9.70
2024-02-18T08:47:16.073Z,9.70
2024-02-18T08:52:18.149Z,9.70
2024-02-18T08:57:20.308Z,9.70
2024-02-18T09:02:23.147Z,9.70
2024-02-18T09:07:25.510Z,9.70
2024-02-18T09:12:28.875Z,9.80
2024-02-18T09:17:31.030Z,9.80
2024-02-18T09:22:33.113Z,9.80
2024-02-18T09:27:35.280Z,9.80
2024-02-18T09:32:37.335Z,9.80
2024-02-18T09:37:40.032Z,9.90
2024-02-18T09:42:46.302Z,9.90
2024-02-18T09:47:49.994Z,9.90
2024-02-18T09:52:53.299Z,10.00
2024-02-18T09:57:55.491Z,9.90
2024-02-18T10:02:57.623Z,9.80
2024-02-18T10:08:04.279Z,9.70
2024-02-18T10:13:09.356Z,9.70
2024-02-18T10:18:11.593Z,9.70
2024-02-18T10:23:13.973Z,9.70
2024-02-18T10:28:20.101Z,9.70
2024-02-18T10:33:22.196Z,9.70
2024-02-18T10:38:26.122Z,9.80
2024-02-18T10:43:31.054Z,9.80
2024-02-18T10:48:36.534Z,9.80
2024-02-18T10:53:48.059Z,9.70
2024-02-18T10:59:17.125Z,9.70
2024-02-18T11:04:19.650Z,9.80
2024-02-18T11:09:22.929Z,9.70
2024-02-18T11:14:25.832Z,9.70
2024-02-18T11:19:29.913Z,9.70
2024-02-18T11:24:32.627Z,9.70
2024-02-18T11:29:46.603Z,9.70
2024-02-18T11:34:50.594Z,9.80
2024-02-18T11:40:20.741Z,9.90
2024-02-18T11:45:25.014Z,10.00
2024-02-18T11:50:27.486Z,10.10
2024-02-18T11:55:29.665Z,10.00
2024-02-18T12:00:31.770Z,10.00
2024-02-18T12:05:33.974Z,9.90
2024-02-18T12:10:39.069Z,9.90
2024-02-18T12:15:44.913Z,9.80
2024-02-18T12:20:51.282Z,9.70
2024-02-18T12:25:55.294Z,9.60
2024-02-18T12:30:57.616Z,9.50
2024-02-18T12:35:59.959Z,9.40
2024-02-18T12:41:02.319Z,9.40
2024-02-18T12:46:08.788Z,9.40
2024-02-18T12:51:14.303Z,9.40
2024-02-18T12:56:17.612Z,9.40
2024-02-18T13:01:20.964Z,9.30
2024-02-18T13:06:24.181Z,9.30
2024-02-18T13:11:27.957Z,9.20
2024-02-18T13:16:30.323Z,9.20
2024-02-18T13:21:32.795Z,9.20
2024-02-18T13:26:35.780Z,9.20
2024-02-18T13:31:38.010Z,9.10
2024-02-18T13:36:43.299Z,9.10
2024-02-18T13:41:48.918Z,9.10
2024-02-18T13:46:51.492Z,9.10
2024-02-18T13:51:53.832Z,9.00
2024-02-18T13:56:56.183Z,9.00
2024-02-18T14:01:59.502Z,8.90
2024-02-18T14:07:02.081Z,8.80
2024-02-18T14:12:07.952Z,8.90
2024-02-18T14:17:10.243Z,8.80
2024-02-18T14:22:13.244Z,8.70
2024-02-18T14:27:15.638Z,8.60
2024-02-18T14:32:18.540Z,8.50
2024-02-18T14:37:22.382Z,8.50
2024-02-18T14:42:24.955Z,8.40
2024-02-18T14:47:29.070Z,8.40
2024-02-18T14:52:31.494Z,8.40
2024-02-18T14:57:34.080Z,8.40
2024-02-18T15:02:37.439Z,8.30
2024-02-18T15:07:40.488Z,8.30
2024-02-18T15:12:43.127Z,8.30
2024-02-18T15:17:45.303Z,8.30
2024-02-18T15:22:47.680Z,8.30
2024-02-18T15:27:50.807Z,8.30
2024-02-18T15:32:53.143Z,8.30
2024-02-18T15:37:55.630Z,8.30
2024-02-18T15:42:57.986Z,8.30
2024-02-18T15:48:00.451Z,8.30
2024-02-18T15:53:03.991Z,8.30
2024-02-18T15:58:06.525Z,8.30
2024-02-18T16:03:08.698Z,8.30
2024-02-18T16:08:11.313Z,8.30
2024-02-18T16:13:13.637Z,8.30
2024-02-18T16:18:16.054Z,8.20
2024-02-18T16:23:18.289Z,8.20
2024-02-18T16:28:20.593Z,8.20
2024-02-18T16:33:22.860Z,8.20
2024-02-18T16:38:25.252Z,8.20
2024-02-18T16:43:30.910Z,8.30
2024-02-18T16:48:35.782Z,8.30
2024-02-18T16:53:38.109Z,8.30
2024-02-18T16:58:40.414Z,8.20
2024-02-18T17:03:42.948Z,8.20
2024-02-18T17:08:45.239Z,8.20
2024-02-18T17:13:50.125Z,8.20
2024-02-18T17:18:52.658Z,8.20
2024-02-18T17:23:55.989Z,8.20
2024-02-18T17:28:58.505Z,8.20
2024-02-18T17:34:00.844Z,8.20
2024-02-18T17:39:07.625Z,8.20
2024-02-18T17:44:11.470Z,8.20
2024-02-18T17:49:14.176Z,8.20
2024-02-18T17:54:16.989Z,8.30
2024-02-18T17:59:19.107Z,8.30
2024-02-18T18:04:21.365Z,8.30
2024-02-18T18:09:23.537Z,8.30
2024-02-18T18:14:25.737Z,8.30
2024-02-18T18:19:27.968Z,8.40
2024-02-18T18:24:30.422Z,8.30
2024-02-18T18:29:32.658Z,8.40
2024-02-18T18:34:34.823Z,8.40
2024-02-18T18:39:37.867Z,8.40
2024-02-18T18:44:40.461Z,8.50
2024-02-18T18:49:42.808Z,8.50
2024-02-18T18:54:45.052Z,8.50
2024-02-18T18:59:47.206Z,8.40
2024-02-18T19:04:49.655Z,8.50
2024-02-18T19:09:51.898Z,8.50
2024-02-18T19:14:54.076Z,8.50
2024-02-18T19:19:56.345Z,8.50
2024-02-18T19:24:59.020Z,8.60
2024-02-18T19:30:02.264Z,8.50
2024-02-18T19:35:05.713Z,8.60
2024-02-18T19:40:08.728Z,8.60
2024-02-18T19:45:10.964Z,8.70
2024-02-18T19:50:13.336Z,8.70
2024-02-18T19:55:15.525Z,8.70
2024-02-18T20:00:17.972Z,8.80
2024-02-18T20:05:20.362Z,8.80
2024-02-18T20:10:23.189Z,8.70
2024-02-18T20:15:25.385Z,8.60
2024-02-18T20:20:27.723Z,8.70
2024-02-18T20:25:30.788Z,8.70
2024-02-18T20:30:34.705Z,8.70
2024-02-18T20:35:38.026Z,8.60
2024-02-18T20:40:40.457Z,8.60
2024-02-18T20:45:42.740Z,8.50
2024-02-18T20:50:45.043Z,8.50
2024-02-18T20:55:47.311Z,8.50
2024-02-18T21:00:50.053Z,8.50
2024-02-18T21:05:52.341Z,8.40
2024-02-18T21:10:55.162Z,8.40
2024-02-18T21:15:57.560Z,8.40
2024-02-18T21:20:59.852Z,8.40
2024-02-18T21:26:02.501Z,8.40
2024-02-18T21:31:04.765Z,8.40
2024-02-18T21:36:08.270Z,8.40
2024-02-18T21:41:10.569Z,8.40
2024-02-18T21:46:12.947Z,8.40
2024-02-18T21:51:15.214Z,8.40
2024-02-18T21:56:17.463Z,8.40
2024-02-18T22:01:20.733Z,8.40
2024-02-18T22:06:22.945Z,8.40
2024-02-18T22:11:25.206Z,8.40
2024-02-18T22:16:27.484Z,8.40
2024-02-18T22:21:29.750Z,8.40
2024-02-18T22:26:38.473Z,8.40
2024-02-18T22:31:40.637Z,8.40
2024-02-18T22:36:43.114Z,8.40
2024-02-18T22:41:45.346Z,8.40
2024-02-18T22:46:48.032Z,8.40
2024-02-18T22:51:52.689Z,8.40
2024-02-18T22:56:55.826Z,8.30
2024-02-18T23:01:58.062Z,8.20
2024-02-18T23:07:00.317Z,8.10
2024-02-18T23:12:03.617Z,8.00
2024-02-18T23:17:05.919Z,7.80
2024-02-18T23:22:08.796Z,7.70
2024-02-18T23:27:11.301Z,7.70
2024-02-18T23:32:13.833Z,7.60
2024-02-18T23:37:16.064Z,7.60
2024-02-18T23:42:18.332Z,7.60
2024-02-18T23:47:20.548Z,7.50
2024-02-18T23:52:23.060Z,7.50
2024-02-18T23:57:25.241Z,7.40
